Time;durP1;ratioP1;P1;durP2;ratioP2;P2;SDS_P1;SDS_P2;PMS_P1;PMS_P2;Temp;Humidity;BMP_temperature;BMP_pressure;BME280_temperature;BME280_humidity;BME280_pressure;Samples;Min_cycle;Max_cycle;Signal;HPM_P1;HPM_P2
2022/06/09 00:03:32;;;;;;;18.77;4.00;;;;;13.60;100447.00;;;;10458873;28;20553;-78
2022/06/09 00:08:37;;;;;;;16.00;3.43;;;;;13.60;100447.00;;;;10440322;28;20221;-77
2022/06/09 00:13:40;;;;;;;16.63;4.27;;;;;13.60;100458.00;;;;10459445;28;20190;-78
2022/06/09 00:18:42;;;;;;;24.77;4.50;;;;;13.60;100457.00;;;;10452348;28;20220;-77
2022/06/09 00:23:44;;;;;;;21.20;4.13;;;;;13.60;100469.00;;;;10466230;28;20208;-77
2022/06/09 00:28:46;;;;;;;17.77;4.03;;;;;13.60;100463.00;;;;10466043;28;20221;-77
2022/06/09 00:33:48;;;;;;;18.67;3.87;;;;;13.60;100473.00;;;;10481634;28;20743;-77
2022/06/09 00:38:50;;;;;;;15.60;4.17;;;;;13.70;100478.00;;;;10466158;28;20219;-77
2022/06/09 00:43:52;;;;;;;13.23;4.00;;;;;13.70;100476.00;;;;10440831;28;20315;-77
2022/06/09 00:48:59;;;;;;;17.67;4.40;;;;;13.70;100476.00;;;;10465659;28;20206;-77
2022/06/09 00:54:05;;;;;;;16.73;4.97;;;;;13.70;100481.00;;;;10473460;28;20198;-78
2022/06/09 00:59:11;;;;;;;24.13;4.40;;;;;13.70;100481.00;;;;10455079;28;20190;-77
2022/06/09 01:04:17;;;;;;;18.83;4.50;;;;;13.60;100485.00;;;;10497025;28;20739;-78
2022/06/09 01:09:22;;;;;;;16.87;3.77;;;;;13.60;100494.00;;;;10437249;28;20222;-78
2022/06/09 01:14:27;;;;;;;15.13;4.27;;;;;13.50;100492.00;;;;10437971;28;20204;-78
2022/06/09 01:20:06;;;;;;;15.90;4.30;;;;;13.40;100503.00;;;;10479073;28;20249;-78
2022/06/09 01:25:17;;;;;;;27.30;4.43;;;;;13.30;100498.00;;;;10456228;28;20278;-78
2022/06/09 01:30:22;;;;;;;21.33;4.60;;;;;13.30;100509.00;;;;10436073;28;20209;-78
2022/06/09 01:35:43;;;;;;;17.07;4.47;;;;;13.30;100496.00;;;;10437292;28;20194;-78
2022/06/09 01:40:45;;;;;;;17.23;4.30;;;;;13.20;100499.00;;;;10437449;28;20221;-78
2022/06/09 01:46:03;;;;;;;20.83;4.70;;;;;13.10;100510.00;;;;10469522;28;20281;-78
2022/06/09 01:51:12;;;;;;;21.77;5.47;;;;;13.00;100515.00;;;;10450387;28;20569;-78
2022/06/09 01:56:30;;;;;;;18.63;4.10;;;;;12.90;100516.00;;;;10462205;28;20208;-78
2022/06/09 02:01:44;;;;;;;22.97;4.50;;;;;12.80;100516.00;;;;10451891;28;20204;-78
2022/06/09 02:06:47;;;;;;;18.87;3.80;;;;;12.70;100529.00;;;;10475452;28;20205;-78
2022/06/09 02:11:52;;;;;;;17.93;4.40;;;;;12.60;100533.00;;;;10453372;28;20190;-78
2022/06/09 02:16:56;;;;;;;28.17;5.93;;;;;12.60;100532.00;;;;10413981;28;20190;-77
2022/06/09 02:21:58;;;;;;;23.27;4.80;;;;;12.50;100534.00;;;;10483652;28;20541;-78
2022/06/09 02:27:00;;;;;;;16.43;5.00;;;;;12.40;100535.00;;;;10479800;28;20214;-77
2022/06/09 02:32:03;;;;;;;25.00;4.60;;;;;12.40;100538.00;;;;10445669;28;20197;-78
2022/06/09 02:37:04;;;;;;;23.63;5.27;;;;;12.30;100546.00;;;;10445505;28;20224;-77
2022/06/09 02:42:07;;;;;;;20.17;5.27;;;;;12.30;100550.00;;;;10438143;28;20190;-78
2022/06/09 02:47:10;;;;;;;24.03;4.53;;;;;12.20;100550.00;;;;10487103;28;20268;-77
2022/06/09 02:52:12;;;;;;;21.60;5.50;;;;;12.20;100551.00;;;;10470204;28;20205;-77
2022/06/09 02:57:14;;;;;;;13.67;4.77;;;;;12.10;100560.00;;;;10428471;28;20612;-77
2022/06/09 03:02:16;;;;;;;18.10;5.80;;;;;12.10;100569.00;;;;10428261;28;20244;-77
2022/06/09 03:07:18;;;;;;;18.57;4.53;;;;;12.00;100568.00;;;;10488797;28;20231;-77
2022/06/09 03:12:21;;;;;;;30.30;5.83;;;;;12.00;100577.00;;;;10473621;28;20244;-78
2022/06/09 03:17:23;;;;;;;29.43;5.47;;;;;12.00;100578.00;;;;10427921;28;20186;-78
2022/06/09 03:22:25;;;;;;;24.93;4.60;;;;;12.00;100583.00;;;;10427220;28;20259;-78
2022/06/09 03:27:28;;;;;;;21.83;4.77;;;;;11.90;100583.00;;;;10410675;28;20271;-77
2022/06/09 03:32:30;;;;;;;23.13;4.93;;;;;11.90;100599.00;;;;10430878;28;20201;-77
2022/06/09 03:37:32;;;;;;;17.53;4.87;;;;;11.90;100601.00;;;;10451402;28;20201;-78
2022/06/09 03:42:33;;;;;;;28.63;5.67;;;;;12.00;100607.00;;;;10443015;28;20567;-77
2022/06/09 03:47:36;;;;;;;18.87;4.53;;;;;12.00;100610.00;;;;10443478;28;20209;-78
2022/06/09 03:52:38;;;;;;;20.60;5.17;;;;;12.10;100619.00;;;;10468113;28;20660;-78
2022/06/09 03:57:40;;;;;;;20.60;4.97;;;;;12.20;100627.00;;;;10443407;28;20198;-77
2022/06/09 04:02:42;;;;;;;25.60;4.23;;;;;12.30;100632.00;;;;10429596;28;20186;-77
2022/06/09 04:07:44;;;;;;;22.63;5.10;;;;;12.30;100642.00;;;;10483363;28;20252;-78
2022/06/09 04:12:46;;;;;;;25.87;6.10;;;;;12.50;100638.00;;;;10466977;28;20243;-78
2022/06/09 04:17:51;;;;;;;19.73;5.30;;;;;12.70;100642.00;;;;10466263;28;20193;-77
2022/06/09 04:22:54;;;;;;;19.93;4.57;;;;;12.90;100655.00;;;;10467866;28;20182;-77
2022/06/09 04:27:55;;;;;;;24.87;5.50;;;;;13.10;100656.00;;;;10465848;28;20637;-77
2022/06/09 04:32:57;;;;;;;24.33;5.80;;;;;13.40;100665.00;;;;10449416;28;20194;-78
2022/06/09 04:38:03;;;;;;;25.47;6.50;;;;;13.60;100672.00;;;;10424343;28;20214;-78
2022/06/09 04:43:08;;;;;;;22.30;6.10;;;;;13.50;100673.00;;;;10441481;28;20263;-78
2022/06/09 04:48:11;;;;;;;18.90;4.93;;;;;13.50;100683.00;;;;10448400;28;20205;-77
2022/06/09 04:53:13;;;;;;;21.30;5.30;;;;;13.60;100699.00;;;;10476368;28;20247;-78
2022/06/09 04:58:15;;;;;;;20.17;4.60;;;;;13.60;100703.00;;;;10481790;28;20267;-77
2022/06/09 05:03:17;;;;;;;22.83;5.20;;;;;13.70;100705.00;;;;10465653;28;20197;-78
2022/06/09 05:08:20;;;;;;;26.20;5.47;;;;;13.80;100718.00;;;;10416696;28;20649;-78
2022/06/09 05:13:21;;;;;;;24.57;5.33;;;;;14.00;100721.00;;;;10440642;28;20186;-77
2022/06/09 05:18:26;;;;;;;20.10;5.40;;;;;14.20;100726.00;;;;10423529;28;20252;-78
2022/06/09 05:23:29;;;;;;;19.50;4.57;;;;;14.50;100739.00;;;;10407365;28;20285;-77
2022/06/09 05:28:32;;;;;;;21.23;4.93;;;;;14.70;100751.00;;;;10407076;28;20680;-77
2022/06/09 05:33:34;;;;;;;15.00;5.50;;;;;15.00;100743.00;;;;10392025;28;20198;-77
2022/06/09 05:49:18;;;;;;;27.73;6.10;;;;;15.80;100762.00;;;;10444679;28;20227;-77
2022/06/09 05:54:20;;;;;;;25.83;4.80;;;;;15.90;100769.00;;;;10506360;28;20259;-77
2022/06/09 05:59:22;;;;;;;15.87;3.90;;;;;16.10;100781.00;;;;10429935;28;20190;-78
2022/06/09 06:04:24;;;;;;;21.53;4.10;;;;;16.30;100794.00;;;;10434800;28;20206;-78
2022/06/09 06:09:26;;;;;;;14.88;4.32;;;;;16.50;100802.00;;;;10462823;28;20561;-78
2022/06/09 06:14:29;;;;;;;16.33;3.90;;;;;16.40;100803.00;;;;10461503;28;20190;-78
2022/06/09 06:19:31;;;;;;;19.05;3.72;;;;;16.20;100801.00;;;;10463198;28;20598;-78
2022/06/09 06:24:33;;;;;;;21.42;5.15;;;;;16.00;100822.00;;;;10454469;28;20189;-78
2022/06/09 06:29:35;;;;;;;15.77;4.27;;;;;16.00;100824.00;;;;10428975;28;20222;-77
2022/06/09 06:34:37;;;;;;;21.08;4.85;;;;;16.00;100823.00;;;;10442101;28;20206;-78
2022/06/09 06:39:39;;;;;;;17.48;4.50;;;;;16.30;100839.00;;;;10429484;28;20186;-77
2022/06/09 06:44:41;;;;;;;20.25;3.90;;;;;16.80;100847.00;;;;10461782;28;20216;-77
2022/06/09 06:49:43;;;;;;;17.27;4.25;;;;;18.60;100857.00;;;;10486959;28;20221;-77
2022/06/09 06:54:44;;;;;;;14.07;4.00;;;;;19.00;100884.00;;;;10486197;28;20197;-78
2022/06/09 06:59:46;;;;;;;18.27;4.07;;;;;19.20;100903.00;;;;10462291;28;20603;-77
2022/06/09 07:04:48;;;;;;;14.10;5.97;;;;;19.10;100895.00;;;;10456697;28;20239;-77
2022/06/09 07:09:51;;;;;;;14.65;4.93;;;;;19.00;100909.00;;;;10499282;28;20300;-77
2022/06/09 07:14:53;;;;;;;14.88;4.82;;;;;19.10;100914.00;;;;10483211;28;20193;-78
2022/06/09 07:19:55;;;;;;;14.13;3.95;;;;;19.60;100917.00;;;;10436857;28;20198;-78
2022/06/09 07:24:57;;;;;;;11.27;3.38;;;;;20.00;100916.00;;;;10466964;28;20268;-78
2022/06/09 07:30:00;;;;;;;12.15;3.53;;;;;20.30;100937.00;;;;10450562;28;20215;-77
2022/06/09 07:35:04;;;;;;;10.88;3.45;;;;;19.80;100940.00;;;;10484476;28;20185;-78
2022/06/09 07:40:07;;;;;;;12.57;3.40;;;;;19.60;100942.00;;;;10432488;28;20648;-77
2022/06/09 07:45:11;;;;;;;14.63;3.75;;;;;20.70;100944.00;;;;10478453;28;20522;-78
2022/06/09 07:50:14;;;;;;;15.85;4.43;;;;;21.60;100948.00;;;;10479286;28;20258;-77
2022/06/09 07:55:22;;;;;;;15.73;3.88;;;;;20.90;100948.00;;;;10443777;28;20190;-78
2022/06/09 08:00:26;;;;;;;13.57;3.47;;;;;22.60;100938.00;;;;10461120;28;20185;-78
2022/06/09 08:05:28;;;;;;;13.00;3.55;;;;;22.10;100951.00;;;;10467031;28;20206;-78
2022/06/09 08:10:30;;;;;;;9.32;3.30;;;;;21.80;100970.00;;;;10480137;28;20213;-78
2022/06/09 08:15:32;;;;;;;12.23;3.22;;;;;22.30;100953.00;;;;10477016;28;20213;-78
2022/06/09 08:20:36;;;;;;;7.05;3.25;;;;;22.70;100973.00;;;;10480015;28;20248;-78
2022/06/09 08:26:05;;;;;;;15.57;3.55;;;;;21.80;100976.00;;;;10480279;28;20208;-78
2022/06/09 08:31:07;;;;;;;14.00;3.40;;;;;21.60;100979.00;;;;10443216;28;20232;-76
2022/06/09 08:36:09;;;;;;;10.95;3.40;;;;;21.20;100980.00;;;;10477256;28;20243;-76
2022/06/09 08:41:35;;;;;;;11.45;3.65;;;;;21.30;100988.00;;;;10443541;28;20196;-76
2022/06/09 08:47:22;;;;;;;9.77;3.28;;;;;21.40;100991.00;;;;10473168;28;20727;-76
2022/06/09 08:52:41;;;;;;;9.85;3.40;;;;;21.00;101000.00;;;;10473981;28;20197;-76
2022/06/09 08:57:44;;;;;;;8.77;3.58;;;;;21.90;100998.00;;;;10476468;28;20223;-76
2022/06/09 09:02:59;;;;;;;15.13;3.70;;;;;20.70;100998.00;;;;10459137;28;20194;-76
2022/06/09 09:08:06;;;;;;;11.82;3.40;;;;;20.20;100998.00;;;;10443061;28;20711;-76
2022/06/09 09:13:50;;;;;;;9.70;3.50;;;;;20.80;100989.00;;;;10493538;28;20186;-76
2022/06/09 09:19:20;;;;;;;7.78;3.53;;;;;23.80;101002.00;;;;10456649;28;20189;-76
2022/06/09 09:24:37;;;;;;;8.63;2.50;;;;;24.10;100987.00;;;;10447385;28;20620;-77
2022/06/09 09:29:47;;;;;;;11.30;2.85;;;;;24.40;101004.00;;;;10465143;28;20209;-77
2022/06/09 09:34:51;;;;;;;6.95;2.10;;;;;23.70;100999.00;;;;10475302;28;20194;-77
2022/06/09 09:40:00;;;;;;;7.90;2.17;;;;;23.80;101018.00;;;;10455534;28;20221;-77
2022/06/09 09:45:15;;;;;;;6.07;2.00;;;;;23.10;101017.00;;;;10483459;28;20193;-77
2022/06/09 09:50:32;;;;;;;5.22;2.40;;;;;22.60;101032.00;;;;10479387;28;20219;-77
2022/06/09 09:55:49;;;;;;;8.95;4.40;;;;;22.70;101044.00;;;;10463624;28;20652;-76
2022/06/09 10:01:06;;;;;;;12.77;4.10;;;;;22.60;101050.00;;;;10465685;28;20208;-77
2022/06/09 10:11:55;;;;;;;9.32;4.20;;;;;21.10;101064.00;;;;10482556;28;20548;-76
2022/06/09 10:16:57;;;;;;;7.75;3.75;;;;;21.20;101072.00;;;;10451736;28;20197;-76
2022/06/09 10:22:20;;;;;;;10.30;4.05;;;;;21.40;101076.00;;;;10463222;28;20185;-77
2022/06/09 10:27:26;;;;;;;7.53;2.88;;;;;21.20;101081.00;;;;10437043;28;20221;-76
2022/06/09 10:32:45;;;;;;;7.20;2.78;;;;;21.00;101090.00;;;;10464587;28;20233;-77
2022/06/09 10:37:51;;;;;;;7.05;2.53;;;;;20.50;101090.00;;;;10473937;28;20214;-76
2022/06/09 10:43:25;;;;;;;7.80;2.20;;;;;20.90;101096.00;;;;10464892;28;20178;-76
2022/06/09 10:59:44;;;;;;;3.83;1.85;;;;;21.60;101087.00;;;;10431894;28;20549;-77
2022/06/09 11:04:48;;;;;;;4.72;1.55;;;;;21.80;101116.00;;;;10480091;28;20267;-76
2022/06/09 11:10:16;;;;;;;11.30;1.90;;;;;21.30;101117.00;;;;10478699;28;20216;-77
2022/06/09 11:15:36;;;;;;;1.42;0.88;;;;;20.40;101131.00;;;;10453461;28;20850;-77
2022/06/09 11:20:47;;;;;;;4.05;1.17;;;;;19.80;101132.00;;;;10451891;28;20285;-77
2022/06/09 11:26:12;;;;;;;3.53;0.80;;;;;19.30;101127.00;;;;10476505;28;20243;-77
2022/06/09 11:31:20;;;;;;;3.47;1.00;;;;;19.90;101123.00;;;;10477865;28;20900;-77
2022/06/09 11:37:00;;;;;;;5.43;1.20;;;;;20.20;101128.00;;;;10456687;28;20228;-77
2022/06/09 11:42:11;;;;;;;2.92;1.10;;;;;20.80;101128.00;;;;10454916;28;20214;-77
2022/06/09 11:47:17;;;;;;;2.80;1.08;;;;;21.20;101131.00;;;;10459566;28;20193;-77
2022/06/09 11:52:21;;;;;;;4.53;1.30;;;;;21.70;101126.00;;;;10434621;28;20219;-77
2022/06/09 11:57:44;;;;;;;4.75;1.92;;;;;22.30;101139.00;;;;10439924;28;20194;-77
2022/06/09 12:03:23;;;;;;;4.95;1.77;;;;;22.70;101141.00;;;;10450093;28;20189;-77
2022/06/09 12:08:45;;;;;;;5.57;1.98;;;;;23.20;101135.00;;;;10460952;28;20224;-78
2022/06/09 12:14:01;;;;;;;4.78;1.75;;;;;23.70;101136.00;;;;10440365;28;20273;-77
2022/06/09 12:19:24;;;;;;;6.90;2.28;;;;;23.60;101129.00;;;;10462150;28;20193;-77
2022/06/09 12:24:31;;;;;;;8.35;2.72;;;;;23.90;101126.00;;;;10456679;28;20533;-77
2022/06/09 12:29:45;;;;;;;4.07;1.92;;;;;24.10;101125.00;;;;10470086;28;20221;-77
2022/06/09 12:34:51;;;;;;;6.15;2.03;;;;;23.20;101137.00;;;;10443850;28;20247;-77
2022/06/09 12:40:00;;;;;;;7.90;2.25;;;;;21.90;101148.00;;;;10432720;28;20211;-77
2022/06/09 12:45:17;;;;;;;7.72;2.80;;;;;21.30;101158.00;;;;10442997;28;20194;-77
2022/06/09 12:50:23;;;;;;;8.10;2.38;;;;;21.70;101152.00;;;;10429124;28;20237;-77
2022/06/09 12:55:29;;;;;;;6.28;2.20;;;;;22.90;101153.00;;;;10453147;28;20193;-77
2022/06/09 13:00:41;;;;;;;8.02;2.85;;;;;24.20;101155.00;;;;10444593;28;20186;-77
2022/06/09 13:05:43;;;;;;;15.20;2.90;;;;;26.60;101156.00;;;;10450663;28;20232;-77
2022/06/09 13:10:55;;;;;;;4.70;2.00;;;;;28.70;101145.00;;;;10461806;28;20216;-78
2022/06/09 13:16:03;;;;;;;11.10;2.30;;;;;27.60;101163.00;;;;10461705;28;20189;-77
2022/06/09 13:21:17;;;;;;;7.72;2.13;;;;;26.90;101146.00;;;;10449128;28;20200;-78
2022/06/09 13:26:26;;;;;;;5.38;1.73;;;;;27.30;101141.00;;;;10438333;28;20591;-78
2022/06/09 13:31:31;;;;;;;5.60;1.95;;;;;28.10;101164.00;;;;10430886;28;20213;-77
2022/06/09 13:36:40;;;;;;;4.97;1.70;;;;;26.10;101171.00;;;;10442362;28;20197;-77
2022/06/09 13:41:43;;;;;;;7.00;2.65;;;;;24.10;101164.00;;;;10461044;28;20197;-78
2022/06/09 13:47:15;;;;;;;7.00;2.08;;;;;23.30;101183.00;;;;10441882;28;20197;-78
2022/06/09 13:52:37;;;;;;;8.05;2.35;;;;;23.20;101183.00;;;;10495382;28;20645;-78
2022/06/09 13:57:41;;;;;;;6.05;1.90;;;;;23.90;101182.00;;;;10437107;28;20199;-77
2022/06/09 14:03:06;;;;;;;4.43;1.77;;;;;25.80;101187.00;;;;10436152;28;20743;-77
2022/06/09 14:08:14;;;;;;;6.18;1.42;;;;;27.50;101183.00;;;;10455535;28;20205;-78
2022/06/09 14:13:19;;;;;;;6.53;2.35;;;;;28.40;101192.00;;;;10466854;28;20636;-77
2022/06/09 14:18:30;;;;;;;5.75;1.65;;;;;27.60;101204.00;;;;10471203;28;20186;-78
2022/06/09 14:23:34;;;;;;;5.38;1.50;;;;;25.40;101208.00;;;;10469647;28;20205;-79
2022/06/09 14:28:36;;;;;;;5.93;1.50;;;;;27.10;101199.00;;;;10445769;28;20836;-79
2022/06/09 14:33:38;;;;;;;8.07;1.85;;;;;30.20;101199.00;;;;10470028;28;20205;-79
2022/06/09 14:38:40;;;;;;;4.75;1.45;;;;;31.60;101215.00;;;;10454458;28;20243;-79
2022/06/09 14:43:43;;;;;;;5.88;1.80;;;;;32.70;101207.00;;;;10469188;28;20181;-79
2022/06/09 14:48:45;;;;;;;3.88;1.73;;;;;32.50;101230.00;;;;10453081;28;20213;-79
2022/06/09 14:53:47;;;;;;;5.38;1.27;;;;;27.20;101222.00;;;;10445788;28;20263;-79
2022/06/09 14:58:49;;;;;;;5.75;1.50;;;;;32.40;101211.00;;;;10448529;28;20644;-79
2022/06/09 15:03:52;;;;;;;8.05;1.58;;;;;32.10;101212.00;;;;10474813;28;20190;-80
2022/06/09 15:08:55;;;;;;;6.28;1.50;;;;;33.60;101216.00;;;;10460885;28;20213;-80
2022/06/09 15:13:58;;;;;;;3.33;1.50;;;;;34.20;101212.00;;;;10452796;28;20198;-79
2022/06/09 15:19:20;;;;;;;3.22;1.20;;;;;26.00;101230.00;;;;10435165;28;20232;-79
2022/06/09 15:24:22;;;;;;;5.30;1.80;;;;;28.90;101210.00;;;;10458190;28;20190;-79
2022/06/09 15:29:24;;;;;;;3.78;1.30;;;;;32.60;101218.00;;;;10449400;28;20218;-80
2022/06/09 15:34:27;;;;;;;5.18;1.35;;;;;31.40;101245.00;;;;10457999;28;20204;-79
2022/06/09 15:39:29;;;;;;;3.63;1.42;;;;;26.40;101237.00;;;;10473904;28;20658;-80
2022/06/09 15:44:32;;;;;;;7.15;1.60;;;;;24.50;101246.00;;;;10452949;28;20561;-80
2022/06/09 15:49:34;;;;;;;5.75;1.55;;;;;22.90;101253.00;;;;10448522;28;20222;-79
2022/06/09 15:54:36;;;;;;;5.72;1.90;;;;;22.40;101245.00;;;;10460922;28;20570;-80
2022/06/09 15:59:38;;;;;;;7.10;1.83;;;;;23.10;101246.00;;;;10467512;28;20648;-79
2022/06/09 16:04:42;;;;;;;7.53;1.38;;;;;23.90;101240.00;;;;10436600;28;20240;-80
2022/06/09 16:09:45;;;;;;;4.50;1.30;;;;;23.80;101249.00;;;;10442229;28;20221;-79
2022/06/09 16:14:47;;;;;;;5.05;1.85;;;;;24.20;101239.00;;;;10420891;28;20201;-80
2022/06/09 16:19:49;;;;;;;7.15;1.70;;;;;23.90;101253.00;;;;10421938;28;20185;-79
2022/06/09 16:24:51;;;;;;;5.70;1.88;;;;;23.50;101259.00;;;;10412583;28;20186;-79
2022/06/09 16:29:53;;;;;;;7.50;1.98;;;;;23.60;101261.00;;;;10457877;28;20224;-79
2022/06/09 16:34:56;;;;;;;9.18;1.80;;;;;23.00;101272.00;;;;10450264;28;20216;-79
2022/06/09 16:39:58;;;;;;;7.35;1.85;;;;;23.10;101268.00;;;;10442203;28;20189;-79
2022/06/09 16:45:01;;;;;;;8.90;1.40;;;;;23.40;101271.00;;;;10438367;28;20287;-79
2022/06/09 16:50:04;;;;;;;6.47;1.80;;;;;23.00;101278.00;;;;10460863;28;20267;-79
2022/06/09 16:55:07;;;;;;;6.47;1.80;;;;;22.50;101286.00;;;;10461510;28;20228;-79
2022/06/09 17:00:30;;;;;;;7.53;1.83;;;;;22.40;101276.00;;;;10441507;28;20184;-79
2022/06/09 17:05:44;;;;;;;7.95;1.85;;;;;22.40;101274.00;;;;10464822;28;20210;-80
2022/06/09 17:10:49;;;;;;;7.30;2.13;;;;;22.40;101284.00;;;;10462677;28;20214;-80
2022/06/09 17:15:52;;;;;;;5.68;1.92;;;;;22.30;101293.00;;;;10424981;28;20190;-79
2022/06/09 17:20:55;;;;;;;7.07;2.15;;;;;22.00;101302.00;;;;10439661;28;20228;-79
2022/06/09 17:26:18;;;;;;;5.97;2.13;;;;;21.40;101316.00;;;;10444574;28;20213;-79
2022/06/09 17:31:40;;;;;;;5.30;1.75;;;;;21.10;101320.00;;;;10470726;28;20588;-79
2022/06/09 17:36:43;;;;;;;7.88;2.40;;;;;21.20;101319.00;;;;10456467;28;20209;-79
2022/06/09 17:41:45;;;;;;;8.27;2.10;;;;;21.00;101331.00;;;;10447552;28;20189;-79
2022/06/09 17:46:47;;;;;;;7.45;2.45;;;;;20.60;101336.00;;;;10466322;28;20190;-79
2022/06/09 17:51:49;;;;;;;7.70;2.45;;;;;20.50;101345.00;;;;10433105;28;20295;-78
2022/06/09 17:56:51;;;;;;;12.80;2.78;;;;;20.30;101352.00;;;;10436947;28;20217;-78
2022/06/09 18:01:53;;;;;;;11.25;2.42;;;;;19.90;101344.00;;;;10447271;28;20204;-78
2022/06/09 18:06:57;;;;;;;6.07;1.85;;;;;19.60;101347.00;;;;10445280;28;20689;-79
2022/06/09 18:12:00;;;;;;;7.35;1.90;;;;;19.60;101356.00;;;;10442577;28;20213;-79
2022/06/09 18:17:02;;;;;;;7.22;1.83;;;;;19.90;101357.00;;;;10484356;28;20197;-79
2022/06/09 18:22:05;;;;;;;8.50;2.00;;;;;20.00;101358.00;;;;10448822;28;20201;-79
2022/06/09 18:27:09;;;;;;;8.57;1.92;;;;;20.10;101368.00;;;;10466732;28;20206;-79
2022/06/09 18:32:11;;;;;;;9.27;2.05;;;;;19.90;101362.00;;;;10468272;28;20209;-79
2022/06/09 18:37:13;;;;;;;11.85;2.53;;;;;19.90;101377.00;;;;10431324;28;20281;-78
2022/06/09 18:42:15;;;;;;;5.72;1.55;;;;;19.80;101385.00;;;;10437754;28;20192;-79
2022/06/09 18:47:17;;;;;;;14.65;2.65;;;;;19.50;101391.00;;;;10468148;28;20194;-79
2022/06/09 18:52:19;;;;;;;8.00;1.98;;;;;19.40;101396.00;;;;10442245;28;20217;-80
2022/06/09 18:57:21;;;;;;;7.03;1.95;;;;;19.20;101407.00;;;;10441980;28;20648;-79
2022/06/09 19:02:25;;;;;;;11.07;2.72;;;;;19.10;101403.00;;;;10445782;28;20640;-79
2022/06/09 19:07:27;;;;;;;4.82;1.60;;;;;18.90;101412.00;;;;10467547;28;20229;-79
2022/06/09 19:12:29;;;;;;;10.82;2.30;;;;;18.80;101409.00;;;;10459678;28;20738;-79
2022/06/09 19:17:37;;;;;;;5.15;1.60;;;;;18.60;101416.00;;;;10430192;28;20205;-79
2022/06/09 19:22:40;;;;;;;7.88;1.80;;;;;18.50;101433.00;;;;10448687;28;20596;-79
2022/06/09 19:27:46;;;;;;;7.40;1.83;;;;;18.30;101431.00;;;;10457818;28;20640;-79
2022/06/09 19:32:49;;;;;;;7.38;1.90;;;;;18.20;101439.00;;;;10436250;28;20272;-79
2022/06/09 19:37:51;;;;;;;13.50;1.58;;;;;18.00;101457.00;;;;10432148;28;20244;-78
2022/06/09 19:42:53;;;;;;;9.30;2.22;;;;;17.90;101456.00;;;;10424035;28;20202;-79
2022/06/09 19:47:56;;;;;;;10.05;2.30;;;;;17.80;101456.00;;;;10432947;28;20201;-78
2022/06/09 19:52:58;;;;;;;14.95;2.33;;;;;17.70;101467.00;;;;10455071;28;20611;-78
2022/06/09 19:58:00;;;;;;;6.95;1.90;;;;;17.50;101471.00;;;;10423551;28;20190;-79
2022/06/09 20:03:04;;;;;;;8.82;1.60;;;;;17.30;101483.00;;;;10427624;28;20189;-79
2022/06/09 20:08:06;;;;;;;5.93;1.60;;;;;17.10;101487.00;;;;10457150;28;20259;-79
2022/06/09 20:13:10;;;;;;;7.97;1.80;;;;;17.00;101490.00;;;;10459794;28;20695;-79
2022/06/09 20:18:16;;;;;;;6.30;1.95;;;;;16.80;101491.00;;;;10422955;28;20221;-79
2022/06/09 20:23:19;;;;;;;6.82;2.00;;;;;16.60;101500.00;;;;10430990;28;20197;-79
2022/06/09 20:28:28;;;;;;;13.13;2.17;;;;;16.50;101512.00;;;;10446067;28;20194;-79
2022/06/09 20:33:31;;;;;;;9.00;1.85;;;;;16.40;101510.00;;;;10419987;28;20686;-79
2022/06/09 20:38:36;;;;;;;8.57;1.70;;;;;16.40;101516.00;;;;10463082;28;20202;-78
2022/06/09 20:43:38;;;;;;;6.05;1.60;;;;;16.40;101516.00;;;;10424606;28;20193;-78
2022/06/09 20:48:45;;;;;;;11.45;1.90;;;;;16.40;101515.00;;;;10438301;28;20259;-78
2022/06/09 20:53:51;;;;;;;10.23;2.20;;;;;16.40;101518.00;;;;10460093;28;20648;-78
2022/06/09 20:58:53;;;;;;;10.68;2.28;;;;;16.40;101519.00;;;;10447273;28;20551;-79
2022/06/09 21:03:55;;;;;;;8.30;2.08;;;;;16.40;101526.00;;;;10422196;28;20706;-79
2022/06/09 21:08:57;;;;;;;7.10;1.65;;;;;16.30;101523.00;;;;10414206;28;20198;-78
2022/06/09 21:19:20;;;;;;;5.03;1.92;;;;;16.30;101529.00;;;;10452462;28;20224;-79
2022/06/09 21:24:23;;;;;;;8.03;2.03;;;;;16.20;101542.00;;;;10437057;28;20185;-78
2022/06/09 21:29:25;;;;;;;9.40;1.80;;;;;16.10;101536.00;;;;10454366;28;20308;-78
2022/06/09 21:34:27;;;;;;;8.73;2.33;;;;;16.10;101531.00;;;;10454330;28;20254;-79
2022/06/09 21:39:30;;;;;;;8.80;1.73;;;;;16.00;101538.00;;;;10437375;28;20214;-79
2022/06/09 21:44:32;;;;;;;6.32;1.67;;;;;15.90;101542.00;;;;10454091;28;20215;-79
2022/06/09 21:49:35;;;;;;;10.15;2.10;;;;;15.80;101549.00;;;;10486526;28;20289;-78
2022/06/09 21:54:37;;;;;;;6.15;1.95;;;;;15.70;101543.00;;;;10468445;28;20186;-79
2022/06/09 21:59:41;;;;;;;10.10;1.95;;;;;15.70;101546.00;;;;10428494;28;20201;-79
2022/06/09 22:04:43;;;;;;;8.93;2.20;;;;;15.60;101548.00;;;;10430535;28;20220;-79
2022/06/09 22:09:45;;;;;;;12.18;2.47;;;;;15.50;101549.00;;;;10441206;28;20304;-79
2022/06/09 22:14:47;;;;;;;14.57;1.93;;;;;15.50;101564.00;;;;10412071;28;20248;-79
2022/06/09 22:19:49;;;;;;;10.43;1.83;;;;;15.50;101562.00;;;;10428798;28;20186;-79
2022/06/09 22:24:52;;;;;;;7.33;1.63;;;;;15.50;101563.00;;;;10430817;28;20194;-79
2022/06/09 22:29:54;;;;;;;8.83;2.03;;;;;15.50;101562.00;;;;10409242;28;20541;-79
2022/06/09 22:34:56;;;;;;;6.53;1.77;;;;;15.50;101571.00;;;;10431120;28;20197;-79
2022/06/09 22:39:59;;;;;;;14.00;2.30;;;;;15.60;101571.00;;;;10449687;28;20182;-78
2022/06/09 22:45:01;;;;;;;7.82;1.50;;;;;15.60;101574.00;;;;10437989;28;20205;-80
2022/06/09 22:50:06;;;;;;;7.57;2.33;;;;;15.60;101575.00;;;;10434147;28;20206;-79
2022/06/09 23:00:33;;;;;;;10.00;2.00;;;;;15.70;101562.00;;;;10467309;28;20705;-79
2022/06/09 23:05:37;;;;;;;7.87;1.90;;;;;15.70;101569.00;;;;10466312;28;20225;-79
2022/06/09 23:10:39;;;;;;;8.80;2.47;;;;;15.80;101562.00;;;;10451205;28;20210;-79
2022/06/09 23:15:42;;;;;;;8.73;1.85;;;;;15.80;101564.00;;;;10417312;28;20630;-79
2022/06/09 23:20:46;;;;;;;6.30;1.70;;;;;15.80;101569.00;;;;10434689;28;20190;-79
2022/06/09 23:25:55;;;;;;;9.50;1.95;;;;;15.80;101571.00;;;;10450139;28;20266;-79
2022/06/09 23:30:57;;;;;;;10.70;2.55;;;;;15.80;101572.00;;;;10445426;28;20214;-79
2022/06/09 23:35:58;;;;;;;7.33;1.93;;;;;15.80;101574.00;;;;10462096;28;20190;-79
2022/06/09 23:41:01;;;;;;;8.30;1.70;;;;;15.80;101577.00;;;;10442777;28;20252;-79
2022/06/09 23:46:03;;;;;;;7.57;1.80;;;;;15.80;101575.00;;;;10409253;28;20186;-79
2022/06/09 23:51:10;;;;;;;10.07;1.80;;;;;15.70;101570.00;;;;10444376;28;20293;-79
2022/06/09 23:56:21;;;;;;;8.48;1.77;;;;;15.70;101567.00;;;;10433583;28;20186;-79
